sensor_id;sensor_type;location;lat;lon;timestamp;pressure;altitude;pressure_sealevel;temperature;humidity
32237;BME280;18726;44.732;10.550;2023-07-29T00:02:54;100771.06;;;26.51;82.35
32237;BME280;18726;44.732;10.550;2023-07-29T00:05:58;100766.66;;;26.28;84.01
32237;BME280;18726;44.732;10.550;2023-07-29T00:09:02;100760.09;;;26.35;83.92
32237;BME280;18726;44.732;10.550;2023-07-29T00:12:06;100761.84;;;26.41;83.76
32237;BME280;18726;44.732;10.550;2023-07-29T00:15:11;100763.28;;;26.46;82.86
32237;BME280;18726;44.732;10.550;2023-07-29T00:18:15;100758.81;;;26.48;83.43
32237;BME280;18726;44.732;10.550;2023-07-29T00:21:18;100752.97;;;26.55;83.06
32237;BME280;18726;44.732;10.550;2023-07-29T00:24:22;100754.66;;;26.53;83.24
32237;BME280;18726;44.732;10.550;2023-07-29T00:27:26;100760.22;;;26.53;83.56
32237;BME280;18726;44.732;10.550;2023-07-29T00:30:29;100766.06;;;26.46;83.35
32237;BME280;18726;44.732;10.550;2023-07-29T00:33:33;100768.97;;;26.42;83.17
32237;BME280;18726;44.732;10.550;2023-07-29T00:36:37;100766.06;;;26.46;83.79
32237;BME280;18726;44.732;10.550;2023-07-29T00:39:41;100768.03;;;26.67;81.18
32237;BME280;18726;44.732;10.550;2023-07-29T00:42:46;100768.31;;;26.82;79.40
32237;BME280;18726;44.732;10.550;2023-07-29T00:45:50;100765.88;;;26.93;78.63
32237;BME280;18726;44.732;10.550;2023-07-29T00:48:55;100762.53;;;26.98;78.19
32237;BME280;18726;44.732;10.550;2023-07-29T00:52:01;100757.25;;;27.00;77.89
32237;BME280;18726;44.732;10.550;2023-07-29T00:55:05;100756.97;;;26.76;81.72
32237;BME280;18726;44.732;10.550;2023-07-29T00:58:10;100763.56;;;26.70;82.32
32237;BME280;18726;44.732;10.550;2023-07-29T01:01:15;100761.25;;;26.46;84.97
32237;BME280;18726;44.732;10.550;2023-07-29T01:04:18;100767.50;;;26.50;83.41
32237;BME280;18726;44.732;10.550;2023-07-29T01:07:59;100767.97;;;26.58;82.19
32237;BME280;18726;44.732;10.550;2023-07-29T01:14:40;100773.63;;;26.67;79.49
32237;BME280;18726;44.732;10.550;2023-07-29T01:18:03;100784.31;;;26.69;81.68
32237;BME280;18726;44.732;10.550;2023-07-29T01:21:09;100785.09;;;26.69;80.48
32237;BME280;18726;44.732;10.550;2023-07-29T01:24:15;100796.00;;;26.76;79.22
32237;BME280;18726;44.732;10.550;2023-07-29T01:27:18;100789.97;;;26.78;78.75
32237;BME280;18726;44.732;10.550;2023-07-29T01:30:26;100787.94;;;26.78;78.06
32237;BME280;18726;44.732;10.550;2023-07-29T01:33:37;100780.22;;;26.61;81.60
32237;BME280;18726;44.732;10.550;2023-07-29T01:36:43;100785.72;;;25.95;88.87
32237;BME280;18726;44.732;10.550;2023-07-29T01:39:49;100787.13;;;26.00;88.41
32237;BME280;18726;44.732;10.550;2023-07-29T01:42:54;100782.44;;;26.09;86.78
32237;BME280;18726;44.732;10.550;2023-07-29T01:45:58;100777.84;;;25.81;92.36
32237;BME280;18726;44.732;10.550;2023-07-29T01:49:01;100778.28;;;25.92;85.83
32237;BME280;18726;44.732;10.550;2023-07-29T01:52:05;100773.28;;;26.21;81.94
32237;BME280;18726;44.732;10.550;2023-07-29T01:55:09;100779.13;;;26.36;81.47
32237;BME280;18726;44.732;10.550;2023-07-29T01:58:13;100784.78;;;26.11;88.07
32237;BME280;18726;44.732;10.550;2023-07-29T02:01:22;100773.53;;;25.42;94.96
32237;BME280;18726;44.732;10.550;2023-07-29T02:04:26;100776.59;;;24.93;100.00
32237;BME280;18726;44.732;10.550;2023-07-29T02:07:30;100778.75;;;24.60;100.00
32237;BME280;18726;44.732;10.550;2023-07-29T02:10:34;100774.97;;;24.54;100.00
32237;BME280;18726;44.732;10.550;2023-07-29T02:13:38;100780.28;;;24.48;100.00
32237;BME280;18726;44.732;10.550;2023-07-29T02:16:42;100788.97;;;24.63;100.00
32237;BME280;18726;44.732;10.550;2023-07-29T02:19:45;100792.59;;;24.76;100.00
32237;BME280;18726;44.732;10.550;2023-07-29T02:22:49;100792.16;;;24.90;100.00
32237;BME280;18726;44.732;10.550;2023-07-29T02:25:53;100794.56;;;25.05;100.00
32237;BME280;18726;44.732;10.550;2023-07-29T02:28:56;100793.00;;;25.04;100.00
32237;BME280;18726;44.732;10.550;2023-07-29T02:32:00;100794.56;;;25.17;100.00
32237;BME280;18726;44.732;10.550;2023-07-29T02:35:04;100791.66;;;25.21;100.00
32237;BME280;18726;44.732;10.550;2023-07-29T02:38:09;100797.56;;;25.23;100.00
32237;BME280;18726;44.732;10.550;2023-07-29T02:41:13;100804.13;;;25.54;94.93
32237;BME280;18726;44.732;10.550;2023-07-29T02:44:18;100809.91;;;25.73;89.17
32237;BME280;18726;44.732;10.550;2023-07-29T02:47:23;100806.91;;;25.80;88.98
32237;BME280;18726;44.732;10.550;2023-07-29T02:50:27;100796.78;;;25.48;97.14
32237;BME280;18726;44.732;10.550;2023-07-29T02:53:31;100802.13;;;25.42;95.11
32237;BME280;18726;44.732;10.550;2023-07-29T02:56:34;100801.69;;;25.69;89.69
32237;BME280;18726;44.732;10.550;2023-07-29T02:59:39;100799.03;;;25.66;92.98
32237;BME280;18726;44.732;10.550;2023-07-29T03:02:43;100795.44;;;25.52;97.59
32237;BME280;18726;44.732;10.550;2023-07-29T03:05:47;100799.91;;;25.63;93.13
32237;BME280;18726;44.732;10.550;2023-07-29T03:08:51;100799.34;;;25.80;88.91
32237;BME280;18726;44.732;10.550;2023-07-29T03:11:54;100795.22;;;25.85;92.34
32237;BME280;18726;44.732;10.550;2023-07-29T03:14:58;100798.56;;;25.80;95.37
32237;BME280;18726;44.732;10.550;2023-07-29T03:18:03;100792.56;;;25.69;94.87
32237;BME280;18726;44.732;10.550;2023-07-29T03:21:08;100797.47;;;25.39;99.88
32237;BME280;18726;44.732;10.550;2023-07-29T03:24:12;100804.34;;;25.47;97.95
32237;BME280;18726;44.732;10.550;2023-07-29T03:27:16;100805.25;;;25.70;91.22
32237;BME280;18726;44.732;10.550;2023-07-29T03:30:21;100805.47;;;25.75;93.83
32237;BME280;18726;44.732;10.550;2023-07-29T03:33:26;100802.16;;;25.68;95.40
32237;BME280;18726;44.732;10.550;2023-07-29T03:36:30;100812.81;;;25.82;90.99
32237;BME280;18726;44.732;10.550;2023-07-29T03:39:33;100816.25;;;25.86;92.95
32237;BME280;18726;44.732;10.550;2023-07-29T03:42:37;100826.84;;;25.66;93.05
32237;BME280;18726;44.732;10.550;2023-07-29T03:45:41;100811.81;;;25.38;98.08
32237;BME280;18726;44.732;10.550;2023-07-29T03:48:45;100808.25;;;25.12;100.00
32237;BME280;18726;44.732;10.550;2023-07-29T03:51:49;100810.16;;;24.86;100.00
32237;BME280;18726;44.732;10.550;2023-07-29T03:54:53;100820.72;;;24.78;100.00
32237;BME280;18726;44.732;10.550;2023-07-29T03:57:58;100812.28;;;24.95;100.00
32237;BME280;18726;44.732;10.550;2023-07-29T04:01:01;100816.28;;;24.94;100.00
32237;BME280;18726;44.732;10.550;2023-07-29T04:04:05;100813.16;;;24.91;100.00
32237;BME280;18726;44.732;10.550;2023-07-29T04:07:09;100811.59;;;24.90;100.00
32237;BME280;18726;44.732;10.550;2023-07-29T04:10:13;100812.03;;;24.89;100.00
32237;BME280;18726;44.732;10.550;2023-07-29T04:13:17;100808.31;;;24.96;100.00
32237;BME280;18726;44.732;10.550;2023-07-29T04:16:21;100820.47;;;25.14;100.00
32237;BME280;18726;44.732;10.550;2023-07-29T04:19:25;100837.50;;;25.54;96.78
32237;BME280;18726;44.732;10.550;2023-07-29T04:22:29;100834.84;;;25.89;93.87
32237;BME280;18726;44.732;10.550;2023-07-29T04:25:32;100838.00;;;26.13;91.52
32237;BME280;18726;44.732;10.550;2023-07-29T04:28:36;100844.00;;;26.24;92.04
32237;BME280;18726;44.732;10.550;2023-07-29T04:31:40;100833.06;;;26.64;88.82
32237;BME280;18726;44.732;10.550;2023-07-29T04:34:45;100836.31;;;27.37;84.21
32237;BME280;18726;44.732;10.550;2023-07-29T04:37:48;100841.81;;;28.08;80.43
32237;BME280;18726;44.732;10.550;2023-07-29T04:40:53;100851.34;;;28.47;77.62
32237;BME280;18726;44.732;10.550;2023-07-29T04:43:56;100850.38;;;28.32;76.30
32237;BME280;18726;44.732;10.550;2023-07-29T04:47:00;100847.22;;;27.94;79.55
32237;BME280;18726;44.732;10.550;2023-07-29T04:50:04;100841.91;;;27.46;82.92
32237;BME280;18726;44.732;10.550;2023-07-29T04:53:07;100853.25;;;27.21;86.44
32237;BME280;18726;44.732;10.550;2023-07-29T04:56:11;100851.25;;;27.52;83.22
32237;BME280;18726;44.732;10.550;2023-07-29T04:59:14;100852.03;;;27.93;81.45
32237;BME280;18726;44.732;10.550;2023-07-29T05:02:18;100860.19;;;28.46;79.26
32237;BME280;18726;44.732;10.550;2023-07-29T05:05:22;100859.56;;;28.78;78.24
32237;BME280;18726;44.732;10.550;2023-07-29T05:08:26;100860.09;;;29.28;75.81
32237;BME280;18726;44.732;10.550;2023-07-29T05:11:30;100879.44;;;30.01;74.52
32237;BME280;18726;44.732;10.550;2023-07-29T05:14:34;100885.88;;;30.94;70.22
32237;BME280;18726;44.732;10.550;2023-07-29T05:17:37;100881.31;;;32.05;64.40
32237;BME280;18726;44.732;10.550;2023-07-29T05:20:42;100872.59;;;31.68;63.32
32237;BME280;18726;44.732;10.550;2023-07-29T05:23:45;100871.28;;;30.51;67.20
32237;BME280;18726;44.732;10.550;2023-07-29T05:26:51;100868.06;;;29.63;71.76
32237;BME280;18726;44.732;10.550;2023-07-29T05:29:54;100863.63;;;28.86;74.42
32237;BME280;18726;44.732;10.550;2023-07-29T05:32:58;100872.84;;;29.20;74.29
32237;BME280;18726;44.732;10.550;2023-07-29T05:36:02;100879.53;;;30.31;70.80
32237;BME280;18726;44.732;10.550;2023-07-29T05:39:06;100879.19;;;31.50;66.62
32237;BME280;18726;44.732;10.550;2023-07-29T05:42:10;100892.59;;;31.90;64.06
32237;BME280;18726;44.732;10.550;2023-07-29T05:45:14;100889.34;;;31.47;64.55
32237;BME280;18726;44.732;10.550;2023-07-29T05:48:20;100896.97;;;32.11;63.18
32237;BME280;18726;44.732;10.550;2023-07-29T05:51:24;100896.34;;;31.37;66.84
32237;BME280;18726;44.732;10.550;2023-07-29T05:54:28;100894.38;;;30.84;68.25
32237;BME280;18726;44.732;10.550;2023-07-29T05:57:31;100899.00;;;30.58;69.26
32237;BME280;18726;44.732;10.550;2023-07-29T06:00:35;100903.28;;;30.20;69.60
32237;BME280;18726;44.732;10.550;2023-07-29T06:03:39;100901.38;;;29.94;71.37
32237;BME280;18726;44.732;10.550;2023-07-29T06:06:43;100898.88;;;30.29;71.90
32237;BME280;18726;44.732;10.550;2023-07-29T06:09:47;100908.16;;;30.35;71.92
32237;BME280;18726;44.732;10.550;2023-07-29T06:12:50;100897.06;;;30.16;71.95
32237;BME280;18726;44.732;10.550;2023-07-29T06:15:55;100893.13;;;30.47;70.83
32237;BME280;18726;44.732;10.550;2023-07-29T06:18:58;100889.97;;;30.30;70.57
32237;BME280;18726;44.732;10.550;2023-07-29T06:22:02;100895.31;;;30.43;69.84
32237;BME280;18726;44.732;10.550;2023-07-29T06:25:05;100901.75;;;30.97;67.89
32237;BME280;18726;44.732;10.550;2023-07-29T06:28:09;100904.69;;;31.17;66.56
32237;BME280;18726;44.732;10.550;2023-07-29T06:31:13;100893.94;;;31.95;65.21
32237;BME280;18726;44.732;10.550;2023-07-29T06:34:17;100897.25;;;34.32;59.00
32237;BME280;18726;44.732;10.550;2023-07-29T06:37:21;100891.56;;;35.69;53.07
32237;BME280;18726;44.732;10.550;2023-07-29T06:40:25;100909.47;;;38.00;47.39
32237;BME280;18726;44.732;10.550;2023-07-29T06:43:29;100906.09;;;39.33;43.40
32237;BME280;18726;44.732;10.550;2023-07-29T06:46:32;100906.63;;;39.18;42.45
32237;BME280;18726;44.732;10.550;2023-07-29T06:49:36;100910.25;;;39.51;42.14
32237;BME280;18726;44.732;10.550;2023-07-29T06:52:40;100913.41;;;39.47;40.90
32237;BME280;18726;44.732;10.550;2023-07-29T06:55:44;100908.53;;;41.50;39.19
32237;BME280;18726;44.732;10.550;2023-07-29T06:58:48;100906.84;;;41.12;38.44
32237;BME280;18726;44.732;10.550;2023-07-29T07:01:53;100898.84;;;41.11;39.65
32237;BME280;18726;44.732;10.550;2023-07-29T07:04:57;100901.47;;;41.22;38.88
32237;BME280;18726;44.732;10.550;2023-07-29T07:08:00;100910.25;;;42.89;36.73
32237;BME280;18726;44.732;10.550;2023-07-29T07:11:05;100916.41;;;42.57;36.06
32237;BME280;18726;44.732;10.550;2023-07-29T07:14:09;100903.72;;;42.30;36.15
32237;BME280;18726;44.732;10.550;2023-07-29T07:17:13;100910.09;;;44.82;34.31
32237;BME280;18726;44.732;10.550;2023-07-29T07:20:17;100910.72;;;46.41;32.64
32237;BME280;18726;44.732;10.550;2023-07-29T07:23:21;100900.38;;;48.32;29.95
32237;BME280;18726;44.732;10.550;2023-07-29T07:26:25;100900.00;;;48.67;29.51
32237;BME280;18726;44.732;10.550;2023-07-29T07:29:28;100902.47;;;49.96;27.35
32237;BME280;18726;44.732;10.550;2023-07-29T07:32:33;100890.66;;;50.82;27.27
32237;BME280;18726;44.732;10.550;2023-07-29T07:35:37;100888.59;;;52.56;25.89
32237;BME280;18726;44.732;10.550;2023-07-29T07:38:41;100881.78;;;53.18;24.10
32237;BME280;18726;44.732;10.550;2023-07-29T07:41:45;100889.81;;;53.47;23.48
32237;BME280;18726;44.732;10.550;2023-07-29T07:44:48;100872.00;;;51.31;24.89
32237;BME280;18726;44.732;10.550;2023-07-29T07:47:52;100886.81;;;53.45;24.09
32237;BME280;18726;44.732;10.550;2023-07-29T07:50:59;100895.44;;;53.15;22.90
32237;BME280;18726;44.732;10.550;2023-07-29T07:54:03;100884.53;;;51.48;25.05
32237;BME280;18726;44.732;10.550;2023-07-29T07:57:07;100890.72;;;52.81;24.45
32237;BME280;18726;44.732;10.550;2023-07-29T08:00:10;100895.53;;;52.76;24.08
32237;BME280;18726;44.732;10.550;2023-07-29T08:03:17;100888.06;;;52.59;23.46
32237;BME280;18726;44.732;10.550;2023-07-29T08:06:21;100894.19;;;52.52;23.70
32237;BME280;18726;44.732;10.550;2023-07-29T08:09:25;100886.16;;;52.00;24.20
32237;BME280;18726;44.732;10.550;2023-07-29T08:12:29;100884.09;;;51.77;25.00
32237;BME280;18726;44.732;10.550;2023-07-29T08:15:32;100878.28;;;51.40;25.57
32237;BME280;18726;44.732;10.550;2023-07-29T08:18:36;100885.09;;;50.62;25.73
32237;BME280;18726;44.732;10.550;2023-07-29T08:21:40;100877.19;;;49.64;27.14
32237;BME280;18726;44.732;10.550;2023-07-29T08:24:43;100877.16;;;49.21;26.59
32237;BME280;18726;44.732;10.550;2023-07-29T08:27:47;100866.22;;;48.29;28.26
32237;BME280;18726;44.732;10.550;2023-07-29T08:30:51;100864.28;;;47.73;28.16
32237;BME280;18726;44.732;10.550;2023-07-29T08:33:55;100856.38;;;46.62;30.27
32237;BME280;18726;44.732;10.550;2023-07-29T08:36:58;100852.72;;;46.89;29.54
32237;BME280;18726;44.732;10.550;2023-07-29T08:40:03;100849.25;;;45.75;31.46
32237;BME280;18726;44.732;10.550;2023-07-29T08:43:08;100848.84;;;46.40;29.24
32237;BME280;18726;44.732;10.550;2023-07-29T08:46:13;100842.97;;;47.21;29.59
32237;BME280;18726;44.732;10.550;2023-07-29T08:49:18;100844.09;;;47.45;29.53
32237;BME280;18726;44.732;10.550;2023-07-29T08:52:26;100847.09;;;47.27;29.84
32237;BME280;18726;44.732;10.550;2023-07-29T08:55:31;100848.03;;;45.43;30.10
32237;BME280;18726;44.732;10.550;2023-07-29T08:58:36;100839.06;;;41.68;34.05
32237;BME280;18726;44.732;10.550;2023-07-29T09:01:41;100838.03;;;41.29;36.71
32237;BME280;18726;44.732;10.550;2023-07-29T09:04:45;100842.56;;;43.07;35.19
32237;BME280;18726;44.732;10.550;2023-07-29T09:07:51;100838.16;;;44.22;33.80
32237;BME280;18726;44.732;10.550;2023-07-29T09:10:55;100835.69;;;43.56;33.87
32237;BME280;18726;44.732;10.550;2023-07-29T09:13:59;100835.25;;;42.01;35.28
32237;BME280;18726;44.732;10.550;2023-07-29T09:17:07;100836.88;;;41.82;36.02
32237;BME280;18726;44.732;10.550;2023-07-29T09:20:10;100836.09;;;43.37;36.76
32237;BME280;18726;44.732;10.550;2023-07-29T09:23:14;100839.25;;;44.42;33.88
32237;BME280;18726;44.732;10.550;2023-07-29T09:26:27;100841.72;;;43.90;33.75
32237;BME280;18726;44.732;10.550;2023-07-29T09:29:35;100832.72;;;44.74;34.07
32237;BME280;18726;44.732;10.550;2023-07-29T09:32:39;100831.81;;;45.38;33.07
32237;BME280;18726;44.732;10.550;2023-07-29T09:35:44;100831.88;;;44.56;32.59
32237;BME280;18726;44.732;10.550;2023-07-29T09:38:48;100833.75;;;42.74;33.22
32237;BME280;18726;44.732;10.550;2023-07-29T09:41:52;100828.63;;;42.80;34.38
32237;BME280;18726;44.732;10.550;2023-07-29T09:44:55;100826.19;;;42.85;36.04
32237;BME280;18726;44.732;10.550;2023-07-29T09:47:59;100826.50;;;42.43;34.58
32237;BME280;18726;44.732;10.550;2023-07-29T09:51:13;100820.41;;;41.67;35.24
32237;BME280;18726;44.732;10.550;2023-07-29T09:54:17;100815.91;;;40.80;36.78
32237;BME280;18726;44.732;10.550;2023-07-29T09:57:20;100821.56;;;41.43;34.92
32237;BME280;18726;44.732;10.550;2023-07-29T10:00:24;100821.78;;;41.45;35.00
32237;BME280;18726;44.732;10.550;2023-07-29T10:03:29;100812.81;;;41.41;37.68
32237;BME280;18726;44.732;10.550;2023-07-29T10:06:34;100807.00;;;41.83;36.92
32237;BME280;18726;44.732;10.550;2023-07-29T10:09:39;100810.84;;;41.57;35.61
32237;BME280;18726;44.732;10.550;2023-07-29T10:12:43;100806.44;;;41.92;33.88
32237;BME280;18726;44.732;10.550;2023-07-29T10:15:47;100804.56;;;41.94;33.64
32237;BME280;18726;44.732;10.550;2023-07-29T10:18:53;100805.84;;;41.50;35.04
32237;BME280;18726;44.732;10.550;2023-07-29T10:22:03;100799.75;;;42.25;35.77
32237;BME280;18726;44.732;10.550;2023-07-29T10:25:09;100799.50;;;43.05;33.91
32237;BME280;18726;44.732;10.550;2023-07-29T10:28:15;100798.66;;;41.92;36.28
32237;BME280;18726;44.732;10.550;2023-07-29T10:31:20;100793.13;;;40.80;37.01
32237;BME280;18726;44.732;10.550;2023-07-29T10:34:26;100800.38;;;39.21;41.12
32237;BME280;18726;44.732;10.550;2023-07-29T10:37:30;100787.84;;;37.72;44.04
32237;BME280;18726;44.732;10.550;2023-07-29T10:40:50;100791.25;;;38.64;42.61
32237;BME280;18726;44.732;10.550;2023-07-29T10:43:55;100784.44;;;39.71;43.14
32237;BME280;18726;44.732;10.550;2023-07-29T10:46:58;100787.28;;;40.65;39.56
32237;BME280;18726;44.732;10.550;2023-07-29T10:50:01;100775.25;;;40.80;39.02
32237;BME280;18726;44.732;10.550;2023-07-29T10:53:06;100784.00;;;41.24;38.50
32237;BME280;18726;44.732;10.550;2023-07-29T10:56:10;100779.13;;;42.04;38.70
32237;BME280;18726;44.732;10.550;2023-07-29T11:02:21;100776.44;;;42.95;35.48
32237;BME280;18726;44.732;10.550;2023-07-29T11:05:25;100768.88;;;40.87;38.38
32237;BME280;18726;44.732;10.550;2023-07-29T11:08:30;100768.84;;;41.36;36.70
32237;BME280;18726;44.732;10.550;2023-07-29T11:11:33;100771.66;;;41.00;38.73
32237;BME280;18726;44.732;10.550;2023-07-29T11:14:37;100763.69;;;41.06;36.85
32237;BME280;18726;44.732;10.550;2023-07-29T11:17:50;100748.66;;;40.77;39.56
32237;BME280;18726;44.732;10.550;2023-07-29T11:20:54;100750.59;;;40.41;39.23
32237;BME280;18726;44.732;10.550;2023-07-29T11:23:58;100751.31;;;41.61;38.41
32237;BME280;18726;44.732;10.550;2023-07-29T11:27:03;100746.50;;;42.43;37.16
32237;BME280;18726;44.732;10.550;2023-07-29T11:30:09;100751.63;;;42.52;36.80
32237;BME280;18726;44.732;10.550;2023-07-29T11:33:13;100746.72;;;42.91;35.88
32237;BME280;18726;44.732;10.550;2023-07-29T11:36:18;100744.59;;;42.61;35.20
32237;BME280;18726;44.732;10.550;2023-07-29T11:39:22;100727.16;;;40.97;37.26
32237;BME280;18726;44.732;10.550;2023-07-29T11:42:27;100728.66;;;38.00;43.43
32237;BME280;18726;44.732;10.550;2023-07-29T11:45:33;100722.47;;;37.40;43.63
32237;BME280;18726;44.732;10.550;2023-07-29T11:48:36;100719.84;;;38.23;44.80
32237;BME280;18726;44.732;10.550;2023-07-29T11:51:41;100720.75;;;37.31;45.04
32237;BME280;18726;44.732;10.550;2023-07-29T11:54:46;100708.81;;;37.38;45.42
32237;BME280;18726;44.732;10.550;2023-07-29T11:57:51;100723.44;;;37.67;43.92
32237;BME280;18726;44.732;10.550;2023-07-29T12:00:56;100714.00;;;39.24;41.90
32237;BME280;18726;44.732;10.550;2023-07-29T12:04:00;100723.66;;;40.08;40.77
32237;BME280;18726;44.732;10.550;2023-07-29T12:07:08;100719.25;;;40.83;41.09
32237;BME280;18726;44.732;10.550;2023-07-29T12:10:12;100712.22;;;41.40;39.10
32237;BME280;18726;44.732;10.550;2023-07-29T12:13:16;100707.59;;;41.66;39.71
32237;BME280;18726;44.732;10.550;2023-07-29T12:16:20;100708.81;;;41.78;38.61
32237;BME280;18726;44.732;10.550;2023-07-29T12:19:24;100705.06;;;41.55;39.74
32237;BME280;18726;44.732;10.550;2023-07-29T12:22:28;100704.78;;;41.73;39.18
32237;BME280;18726;44.732;10.550;2023-07-29T12:25:32;100688.16;;;39.62;40.86
32237;BME280;18726;44.732;10.550;2023-07-29T12:28:36;100692.00;;;37.65;42.33
32237;BME280;18726;44.732;10.550;2023-07-29T12:31:39;100680.00;;;37.10;45.32
32237;BME280;18726;44.732;10.550;2023-07-29T12:34:44;100665.34;;;36.57;47.60
32237;BME280;18726;44.732;10.550;2023-07-29T12:37:58;100671.50;;;37.10;49.57
32237;BME280;18726;44.732;10.550;2023-07-29T12:41:03;100673.13;;;38.24;46.58
32237;BME280;18726;44.732;10.550;2023-07-29T12:44:06;100671.53;;;39.00;45.39
32237;BME280;18726;44.732;10.550;2023-07-29T12:47:10;100674.44;;;39.26;43.82
32237;BME280;18726;44.732;10.550;2023-07-29T12:50:15;100665.91;;;39.13;41.81
32237;BME280;18726;44.732;10.550;2023-07-29T12:53:18;100663.19;;;37.61;43.72
32237;BME280;18726;44.732;10.550;2023-07-29T12:56:22;100657.63;;;37.31;46.28
32237;BME280;18726;44.732;10.550;2023-07-29T12:59:25;100653.50;;;38.26;46.75
32237;BME280;18726;44.732;10.550;2023-07-29T13:02:29;100653.31;;;37.86;47.60
32237;BME280;18726;44.732;10.550;2023-07-29T13:05:33;100652.53;;;37.48;48.32
32237;BME280;18726;44.732;10.550;2023-07-29T13:08:37;100649.41;;;36.54;48.14
32237;BME280;18726;44.732;10.550;2023-07-29T13:11:41;100648.13;;;37.28;45.61
32237;BME280;18726;44.732;10.550;2023-07-29T13:14:45;100647.78;;;37.94;47.41
32237;BME280;18726;44.732;10.550;2023-07-29T13:17:48;100649.13;;;37.31;44.69
32237;BME280;18726;44.732;10.550;2023-07-29T13:20:52;100636.81;;;38.03;47.12
32237;BME280;18726;44.732;10.550;2023-07-29T13:23:56;100634.81;;;38.75;45.41
32237;BME280;18726;44.732;10.550;2023-07-29T13:27:00;100630.72;;;39.16;44.05
32237;BME280;18726;44.732;10.550;2023-07-29T13:30:04;100627.16;;;37.56;45.71
32237;BME280;18726;44.732;10.550;2023-07-29T13:33:08;100613.94;;;35.82;51.60
32237;BME280;18726;44.732;10.550;2023-07-29T13:36:12;100617.81;;;36.14;49.97
32237;BME280;18726;44.732;10.550;2023-07-29T13:39:16;100610.38;;;37.20;49.54
32237;BME280;18726;44.732;10.550;2023-07-29T13:42:20;100610.53;;;37.65;47.66
32237;BME280;18726;44.732;10.550;2023-07-29T13:45:24;100598.13;;;36.88;49.23
32237;BME280;18726;44.732;10.550;2023-07-29T13:48:27;100602.94;;;37.17;47.35
32237;BME280;18726;44.732;10.550;2023-07-29T13:51:31;100593.13;;;36.69;47.98
32237;BME280;18726;44.732;10.550;2023-07-29T13:54:35;100596.38;;;37.46;46.30
32237;BME280;18726;44.732;10.550;2023-07-29T13:57:38;100592.50;;;38.00;46.43
32237;BME280;18726;44.732;10.550;2023-07-29T14:00:45;100598.72;;;38.31;45.42
32237;BME280;18726;44.732;10.550;2023-07-29T14:03:49;100601.97;;;38.67;45.23
32237;BME280;18726;44.732;10.550;2023-07-29T14:06:52;100594.97;;;38.94;44.59
32237;BME280;18726;44.732;10.550;2023-07-29T14:09:56;100596.28;;;39.20;44.35
32237;BME280;18726;44.732;10.550;2023-07-29T14:12:59;100596.94;;;37.96;44.58
32237;BME280;18726;44.732;10.550;2023-07-29T14:16:03;100601.06;;;36.52;46.15
32237;BME280;18726;44.732;10.550;2023-07-29T14:19:07;100587.63;;;36.58;46.55
32237;BME280;18726;44.732;10.550;2023-07-29T14:22:10;100589.16;;;36.59;46.58
32237;BME280;18726;44.732;10.550;2023-07-29T14:25:14;100593.06;;;36.80;51.01
32237;BME280;18726;44.732;10.550;2023-07-29T14:28:18;100578.34;;;36.58;49.06
32237;BME280;18726;44.732;10.550;2023-07-29T14:31:21;100576.53;;;36.00;49.53
32237;BME280;18726;44.732;10.550;2023-07-29T14:34:26;100573.72;;;36.00;50.00
32237;BME280;18726;44.732;10.550;2023-07-29T14:37:30;100568.84;;;36.31;51.62
32237;BME280;18726;44.732;10.550;2023-07-29T14:40:34;100564.31;;;36.16;48.20
32237;BME280;18726;44.732;10.550;2023-07-29T14:43:38;100574.41;;;36.66;48.25
32237;BME280;18726;44.732;10.550;2023-07-29T14:46:42;100568.59;;;36.29;51.25
32237;BME280;18726;44.732;10.550;2023-07-29T14:49:45;100563.84;;;36.42;48.97
32237;BME280;18726;44.732;10.550;2023-07-29T14:52:49;100558.47;;;36.39;48.53
32237;BME280;18726;44.732;10.550;2023-07-29T14:55:54;100555.81;;;36.46;50.21
32237;BME280;18726;44.732;10.550;2023-07-29T14:58:59;100547.38;;;35.81;49.77
32237;BME280;18726;44.732;10.550;2023-07-29T15:02:03;100551.22;;;35.83;50.08
32237;BME280;18726;44.732;10.550;2023-07-29T15:05:07;100543.50;;;35.84;51.52
32237;BME280;18726;44.732;10.550;2023-07-29T15:08:11;100551.75;;;36.42;50.37
32237;BME280;18726;44.732;10.550;2023-07-29T15:11:15;100539.56;;;36.77;50.91
32237;BME280;18726;44.732;10.550;2023-07-29T15:14:20;100542.38;;;35.98;50.20
32237;BME280;18726;44.732;10.550;2023-07-29T15:17:24;100546.00;;;36.23;47.61
32237;BME280;18726;44.732;10.550;2023-07-29T15:20:28;100538.19;;;36.35;50.56
32237;BME280;18726;44.732;10.550;2023-07-29T15:23:31;100545.88;;;36.64;50.85
32237;BME280;18726;44.732;10.550;2023-07-29T15:26:35;100537.44;;;36.34;51.01
32237;BME280;18726;44.732;10.550;2023-07-29T15:29:39;100532.50;;;34.81;52.41
32237;BME280;18726;44.732;10.550;2023-07-29T15:32:43;100532.44;;;35.50;53.32
32237;BME280;18726;44.732;10.550;2023-07-29T15:35:46;100531.78;;;35.69;51.38
32237;BME280;18726;44.732;10.550;2023-07-29T15:38:50;100527.69;;;35.64;52.08
32237;BME280;18726;44.732;10.550;2023-07-29T15:41:53;100524.38;;;35.60;51.98
32237;BME280;18726;44.732;10.550;2023-07-29T15:44:57;100525.88;;;36.02;50.60
32237;BME280;18726;44.732;10.550;2023-07-29T15:48:01;100513.31;;;36.28;52.90
32237;BME280;18726;44.732;10.550;2023-07-29T15:51:05;100516.94;;;36.23;49.20
32237;BME280;18726;44.732;10.550;2023-07-29T15:54:09;100508.34;;;36.09;52.19
32237;BME280;18726;44.732;10.550;2023-07-29T15:57:13;100507.69;;;35.57;52.58
32237;BME280;18726;44.732;10.550;2023-07-29T16:00:16;100496.41;;;35.57;53.77